This is the latest recevied weather packets stored in our database for station/object GW1572. If no packets are shown the sender has not sent any weather packets the latest 10 day(s).
| Time | Temp. | Humidity | Pressure | Rain* | Wind** | Luminosity | Snow |
|---|---|---|---|---|---|---|---|
| 1777727567 | 5.56° C | 97% | 1009.1 hPa | 0 mm | - | - | - |
| 1777726834 | 5° C | 99% | 1009.1 hPa | 0 mm | - | - | - |
| 1777723604 | 3.89° C | 99% | 1009.1 hPa | 0 mm | - | - | - |
| 1777722891 | 3.89° C | 99% | 1009.1 hPa | 0 mm | - | - | - |
| 1777722152 | 3.33° C | 99% | 1009.1 hPa | 0 mm | - | - | - |
| 1777717127 | 2.78° C | 99% | 1009.1 hPa | 0 mm | - | - | - |
| 1777716391 | 2.78° C | 99% | 1009.1 hPa | 0 mm | - | - | - |
| 1777705944 | 3.89° C | 99% | 1008.8 hPa | 0 mm | - | - | - |
| 1777701647 | 2.78° C | 98% | 1009.1 hPa | 0 mm | - | - | - |
| 1777701288 | 2.78° C | 98% | 1009.1 hPa | 0 mm | - | - | - |
| 1777699821 | 2.78° C | 98% | 1009.4 hPa | 0 mm | - | - | - |
| 1777698388 | 2.78° C | 97% | 1009.4 hPa | 0 mm | - | - | - |
| 1777695875 | 3.89° C | 96% | 1009.4 hPa | 0 mm | - | - | - |
| 1777691175 | 5.56° C | 92% | 1009.1 hPa | 0 mm | - | - | - |
| 1777681112 | 11.11° C | 68% | 1007.1 hPa | 0 mm | - | - | - |
| 1777679693 | 12.22° C | 70% | 1006.4 hPa | 0 mm | - | - | - |
| 1777678973 | 12.22° C | 72% | 1005.7 hPa | 0 mm | - | - | - |
| 1777674654 | 13.33° C | 68% | 1005.4 hPa | 0 mm | - | - | - |
| 1777671758 | 12.78° C | 71% | 1005 hPa | 0 mm | - | - | - |
| 1777661321 | 16.11° C | 57% | 1004 hPa | 0 mm | - | - | - |
| 1777660943 | 16.11° C | 56% | 1003.7 hPa | 0 mm | - | - | - |
| 1777658813 | 17.22° C | 53% | 1003.7 hPa | 0 mm | - | - | - |
| 1777653757 | 17.22° C | 49% | 1004.4 hPa | 0 mm | - | - | - |
| 1777646530 | 13.33° C | 71% | 1005.4 hPa | 0 mm | - | - | - |
| 1777645821 | 12.78° C | 77% | 1005.4 hPa | 0 mm | - | - | - |
* Rain since midnight (hover to see other rain measurements)
** Current wind speed in m/s (hover to see current wind gust speed)